createdAt,value
2022-08-03T00:01:50.847Z,97591.91
2022-08-03T00:04:17.719Z,97591.66
2022-08-03T00:06:44.261Z,97585.34
2022-08-03T00:09:11.475Z,97596.69
2022-08-03T00:11:38.544Z,97582.69
2022-08-03T00:14:06.361Z,97583.25
2022-08-03T00:16:33.121Z,97581.66
2022-08-03T00:19:01.079Z,97578.25
2022-08-03T00:21:28.832Z,97584.03
2022-08-03T00:23:55.405Z,97576.97
2022-08-03T00:26:22.145Z,97582.53
2022-08-03T00:28:49.494Z,97582.25
2022-08-03T00:31:16.874Z,97578.31
2022-08-03T00:33:59.073Z,97581.34
2022-08-03T00:36:27.349Z,97577.84
2022-08-03T00:38:53.825Z,97574.88
2022-08-03T00:41:20.342Z,97581.00
2022-08-03T00:43:47.540Z,97580.41
2022-08-03T00:46:19.064Z,97575.81
2022-08-03T00:48:49.290Z,97572.00
2022-08-03T00:51:16.088Z,97567.69
2022-08-03T00:53:43.414Z,97576.81
2022-08-03T00:56:13.792Z,97574.47
2022-08-03T00:58:40.483Z,97580.03
2022-08-03T01:01:07.345Z,97574.78
2022-08-03T01:03:34.497Z,97580.00
2022-08-03T01:06:10.258Z,97577.69
2022-08-03T01:08:46.763Z,97596.09
2022-08-03T01:11:32.291Z,97593.41
2022-08-03T01:14:18.665Z,97590.13
2022-08-03T01:17:08.128Z,97578.34
2022-08-03T01:19:45.638Z,97584.78
2022-08-03T01:22:28.942Z,97588.44
2022-08-03T01:25:31.783Z,97584.97
2022-08-03T01:28:06.589Z,97585.69
2022-08-03T01:30:37.659Z,97584.50
2022-08-03T01:33:10.792Z,97585.00
2022-08-03T01:35:53.379Z,97580.09
2022-08-03T01:38:28.899Z,97577.22
2022-08-03T01:40:57.143Z,97579.97
2022-08-03T01:43:58.976Z,97578.59
2022-08-03T01:46:20.650Z,97574.06
2022-08-03T01:48:49.205Z,97576.41
2022-08-03T01:51:18.442Z,97585.31
2022-08-03T01:53:45.630Z,97572.19
2022-08-03T01:56:14.437Z,97575.47
2022-08-03T01:58:41.774Z,97569.00
2022-08-03T02:01:10.229Z,97567.72
2022-08-03T02:03:59.486Z,97577.41
2022-08-03T02:07:02.791Z,97568.69
2022-08-03T02:09:20.052Z,97568.56
2022-08-03T02:11:48.012Z,97568.91
2022-08-03T02:14:16.355Z,97569.06
2022-08-03T02:16:44.815Z,97578.59
2022-08-03T02:19:11.882Z,97569.75
2022-08-03T02:21:57.408Z,97571.41
2022-08-03T02:24:26.599Z,97551.31
2022-08-03T02:26:56.043Z,97567.69
2022-08-03T02:29:39.709Z,97571.78
2022-08-03T02:32:12.593Z,97568.66
2022-08-03T02:34:40.969Z,97568.03
2022-08-03T02:37:10.305Z,97570.47
2022-08-03T02:39:37.863Z,97582.25
2022-08-03T02:42:08.634Z,97589.06
2022-08-03T02:44:36.136Z,97569.16
2022-08-03T02:47:06.434Z,97568.78
2022-08-03T02:49:42.616Z,97572.00
2022-08-03T02:52:18.416Z,97573.88
2022-08-03T02:54:47.212Z,97574.66
2022-08-03T02:57:15.208Z,97571.59
2022-08-03T02:59:42.843Z,97568.84
2022-08-03T03:02:10.301Z,97571.53
2022-08-03T03:04:37.542Z,97566.03
2022-08-03T03:07:13.603Z,97574.53
2022-08-03T03:09:43.326Z,97577.31
2022-08-03T03:12:12.067Z,97579.66
2022-08-03T03:14:39.335Z,97570.59
2022-08-03T03:17:10.254Z,97575.81
2022-08-03T03:19:39.257Z,97575.53
2022-08-03T03:22:07.674Z,97575.97
2022-08-03T03:24:35.959Z,97577.03
2022-08-03T03:27:03.551Z,97571.19
2022-08-03T03:29:30.442Z,97575.22
2022-08-03T03:32:08.357Z,97573.94
2022-08-03T03:34:36.494Z,97573.03
2022-08-03T03:37:03.113Z,97577.03
2022-08-03T03:39:29.679Z,97582.91
2022-08-03T03:41:57.413Z,97571.50
2022-08-03T03:44:28.151Z,97582.59
2022-08-03T03:46:55.954Z,97582.56
2022-08-03T03:49:22.812Z,97584.59
2022-08-03T03:51:53.556Z,97584.44
2022-08-03T03:54:20.128Z,97583.22
2022-08-03T03:56:46.791Z,97585.69
2022-08-03T03:59:13.346Z,97588.28
2022-08-03T04:01:40.120Z,97581.66
2022-08-03T04:04:25.093Z,97572.13
2022-08-03T04:07:09.902Z,97581.31
2022-08-03T04:09:59.241Z,97589.34
2022-08-03T04:12:38.441Z,97582.88
2022-08-03T04:15:21.430Z,97588.47
2022-08-03T04:17:50.565Z,97592.75
2022-08-03T04:20:20.737Z,97590.00
2022-08-03T04:22:51.365Z,97595.34
2022-08-03T04:25:20.880Z,97592.09
2022-08-03T04:28:29.732Z,97604.72
2022-08-03T04:30:38.831Z,97598.56
2022-08-03T04:33:06.928Z,97605.75
2022-08-03T04:36:00.991Z,97614.38
2022-08-03T04:38:24.864Z,97603.47
2022-08-03T04:40:52.974Z,97611.47
2022-08-03T04:43:21.852Z,97616.22
2022-08-03T04:45:50.110Z,97617.84
2022-08-03T04:48:17.504Z,97615.97
2022-08-03T04:50:44.689Z,97620.56
2022-08-03T04:53:11.210Z,97616.81
2022-08-03T04:55:37.742Z,97612.75
2022-08-03T04:58:04.984Z,97618.44
2022-08-03T05:00:31.711Z,97618.97
2022-08-03T05:02:58.359Z,97624.13
2022-08-03T05:05:25.173Z,97625.03
2022-08-03T05:07:51.900Z,97625.47
2022-08-03T05:10:19.770Z,97630.22
2022-08-03T05:12:48.441Z,97624.94
2022-08-03T05:15:15.318Z,97626.50
2022-08-03T05:17:41.839Z,97638.91
2022-08-03T05:20:09.277Z,97635.09
2022-08-03T05:22:35.888Z,97633.44
2022-08-03T05:25:02.598Z,97622.41
2022-08-03T05:27:29.169Z,97636.06
2022-08-03T05:29:55.946Z,97628.81
2022-08-03T05:32:42.483Z,97633.78
2022-08-03T05:36:02.098Z,97628.38
2022-08-03T05:37:56.313Z,97631.81
2022-08-03T05:40:22.823Z,97628.81
2022-08-03T05:42:49.888Z,97630.94
2022-08-03T05:45:18.639Z,97634.22
2022-08-03T05:47:45.887Z,97625.53
2022-08-03T05:50:13.075Z,97637.22
2022-08-03T05:52:40.650Z,97639.13
2022-08-03T05:55:08.107Z,97628.91
2022-08-03T05:57:35.336Z,97635.91
2022-08-03T06:00:06.610Z,97640.50
2022-08-03T06:02:34.246Z,97633.06
2022-08-03T06:05:00.815Z,97637.78
2022-08-03T06:07:27.719Z,97637.34
2022-08-03T06:10:33.782Z,97640.13
2022-08-03T06:12:41.436Z,97640.06
2022-08-03T06:15:11.420Z,97646.28
2022-08-03T06:17:48.473Z,97644.03
2022-08-03T06:20:19.697Z,97639.16
2022-08-03T06:22:50.467Z,97639.25
2022-08-03T06:25:17.822Z,97636.97
2022-08-03T06:27:47.874Z,97648.38
2022-08-03T06:30:18.069Z,97652.50
2022-08-03T06:32:51.733Z,97650.56
2022-08-03T06:35:19.337Z,97653.41
2022-08-03T06:37:51.041Z,97651.44
2022-08-03T06:40:24.399Z,97656.13
2022-08-03T06:42:51.427Z,97658.88
2022-08-03T06:45:18.135Z,97654.13
2022-08-03T06:47:44.715Z,97659.75
2022-08-03T06:50:16.400Z,97656.19
2022-08-03T06:52:44.555Z,97662.03
2022-08-03T06:55:11.506Z,97647.50
2022-08-03T06:57:38.003Z,97654.16
2022-08-03T07:00:09.498Z,97660.72
2022-08-03T07:02:39.707Z,97648.72
2022-08-03T07:05:07.852Z,97657.22
2022-08-03T07:07:34.491Z,97656.81
2022-08-03T07:10:02.254Z,97657.94
2022-08-03T07:12:30.584Z,97661.22
2022-08-03T07:15:01.244Z,97652.31
2022-08-03T07:17:34.565Z,97648.97
2022-08-03T07:20:03.645Z,97649.63
2022-08-03T07:22:30.302Z,97651.53
2022-08-03T07:24:56.876Z,97649.69
2022-08-03T07:27:23.763Z,97646.13
2022-08-03T07:29:50.368Z,97644.75
2022-08-03T07:32:17.120Z,97643.00
2022-08-03T07:34:43.866Z,97643.44
2022-08-03T07:37:10.395Z,97650.16
2022-08-03T07:39:36.965Z,97647.84
2022-08-03T07:42:04.150Z,97650.75
2022-08-03T07:44:30.761Z,97648.47
2022-08-03T07:46:57.811Z,97653.69
2022-08-03T07:49:24.793Z,97648.00
2022-08-03T07:52:11.402Z,97652.56
2022-08-03T07:54:38.158Z,97650.72
2022-08-03T07:57:04.720Z,97647.69
2022-08-03T07:59:56.627Z,97654.06
2022-08-03T08:02:18.194Z,97649.59
2022-08-03T08:04:44.887Z,97637.31
2022-08-03T08:07:11.479Z,97644.97
2022-08-03T08:09:37.959Z,97638.50
2022-08-03T08:12:04.921Z,97642.00
2022-08-03T08:14:42.505Z,97640.03
2022-08-03T08:17:08.963Z,97637.78
2022-08-03T08:19:35.404Z,97632.06
2022-08-03T08:22:06.818Z,97627.78
2022-08-03T08:24:34.078Z,97626.47
2022-08-03T08:27:03.845Z,97625.91
2022-08-03T08:29:30.536Z,97626.44
2022-08-03T08:31:57.024Z,97625.78
2022-08-03T08:34:23.544Z,97619.28
2022-08-03T08:36:50.166Z,97620.88
2022-08-03T08:39:17.582Z,97631.22
2022-08-03T08:41:46.438Z,97627.03
2022-08-03T08:44:14.425Z,97622.88
2022-08-03T08:46:40.967Z,97625.31
2022-08-03T08:49:10.694Z,97622.28
2022-08-03T08:51:59.634Z,97617.22
2022-08-03T08:54:29.231Z,97621.59
2022-08-03T08:56:57.440Z,97621.91
2022-08-03T08:59:25.236Z,97617.84
2022-08-03T09:01:56.662Z,97616.53
2022-08-03T09:04:23.453Z,97613.84
2022-08-03T09:07:04.701Z,97612.31
2022-08-03T09:10:12.681Z,97610.53
2022-08-03T09:12:40.864Z,97605.16
2022-08-03T09:15:18.936Z,97607.84
2022-08-03T09:17:50.672Z,97607.56
2022-08-03T09:20:18.367Z,97609.13
2022-08-03T09:23:09.707Z,97607.91
2022-08-03T09:25:59.903Z,97600.75
2022-08-03T09:29:00.544Z,97610.91
2022-08-03T09:31:33.072Z,97606.84
2022-08-03T09:34:05.281Z,97601.41
2022-08-03T09:36:37.319Z,97601.59
2022-08-03T09:39:06.450Z,97602.94
2022-08-03T09:41:34.052Z,97601.91
2022-08-03T09:44:00.587Z,97608.75
2022-08-03T09:46:31.724Z,97611.88
2022-08-03T09:49:12.185Z,97603.75
2022-08-03T09:52:31.467Z,97598.88
2022-08-03T09:54:31.859Z,97603.25
2022-08-03T09:56:58.701Z,97609.38
2022-08-03T09:59:30.191Z,97603.69
2022-08-03T10:01:58.298Z,97602.38
2022-08-03T10:04:25.163Z,97596.69
2022-08-03T10:07:11.459Z,97588.94
2022-08-03T10:09:38.409Z,97590.38
2022-08-03T10:12:12.943Z,97576.13
2022-08-03T10:14:45.799Z,97575.72
2022-08-03T10:17:13.025Z,97582.25
2022-08-03T10:19:41.255Z,97576.81
2022-08-03T10:22:13.770Z,97580.03
2022-08-03T10:24:47.826Z,97576.59
2022-08-03T10:27:15.698Z,97569.94
2022-08-03T10:29:50.450Z,97566.13
2022-08-03T10:32:29.133Z,97555.69
2022-08-03T10:35:20.193Z,97554.44
2022-08-03T10:38:16.732Z,97553.94
2022-08-03T10:40:49.499Z,97555.34
2022-08-03T10:43:56.810Z,97549.75
2022-08-03T10:46:23.801Z,97550.53
2022-08-03T10:48:52.576Z,97552.66
2022-08-03T10:51:20.335Z,97552.44
2022-08-03T10:53:54.219Z,97544.47
2022-08-03T10:56:52.023Z,97549.47
2022-08-03T10:59:27.470Z,97537.13
2022-08-03T11:01:59.252Z,97531.13
2022-08-03T11:04:29.999Z,97543.19
2022-08-03T11:07:16.087Z,97534.81
2022-08-03T11:09:45.401Z,97531.25
2022-08-03T11:12:30.231Z,97521.66
2022-08-03T11:15:04.687Z,97530.38
2022-08-03T11:17:33.143Z,97527.94
2022-08-03T11:19:59.937Z,97520.41
2022-08-03T11:22:50.940Z,97519.47
2022-08-03T11:25:53.598Z,97520.44
2022-08-03T11:28:27.258Z,97522.47
2022-08-03T11:30:54.171Z,97509.13
2022-08-03T11:33:31.309Z,97517.19
2022-08-03T11:36:00.168Z,97516.13
2022-08-03T11:38:26.962Z,97515.38
2022-08-03T11:40:54.569Z,97508.91
2022-08-03T11:43:31.421Z,97498.44
2022-08-03T11:46:03.833Z,97506.66
2022-08-03T11:48:36.320Z,97500.13
2022-08-03T11:51:19.414Z,97513.09
2022-08-03T11:53:47.892Z,97501.78
2022-08-03T11:56:14.648Z,97501.69
2022-08-03T11:59:16.587Z,97504.53
2022-08-03T12:01:36.307Z,97487.25
2022-08-03T12:04:04.850Z,97495.22
2022-08-03T12:06:31.577Z,97490.13
2022-08-03T12:08:58.143Z,97489.06
2022-08-03T12:11:24.746Z,97486.81
2022-08-03T12:14:35.762Z,97483.72
2022-08-03T12:16:38.134Z,97476.56
2022-08-03T12:19:06.963Z,97478.78
2022-08-03T12:21:33.820Z,97481.84
2022-08-03T12:24:05.029Z,97478.28
2022-08-03T12:26:58.535Z,97471.94
2022-08-03T12:29:26.376Z,97475.78
2022-08-03T12:31:53.301Z,97475.84
2022-08-03T12:34:19.907Z,97476.97
2022-08-03T12:36:56.191Z,97469.66
2022-08-03T12:39:24.401Z,97468.94
2022-08-03T12:41:54.432Z,97469.81
2022-08-03T12:44:30.841Z,97473.06
2022-08-03T12:46:59.099Z,97467.56
2022-08-03T12:49:26.570Z,97461.56
2022-08-03T12:51:53.532Z,97468.03
2022-08-03T12:54:24.404Z,97451.06
2022-08-03T12:57:01.810Z,97458.88
2022-08-03T12:59:35.320Z,97459.91
2022-08-03T13:02:16.277Z,97464.53
2022-08-03T13:04:48.458Z,97456.13
2022-08-03T13:07:16.726Z,97451.91
2022-08-03T13:09:49.767Z,97459.47
2022-08-03T13:12:18.346Z,97457.66
2022-08-03T13:14:47.630Z,97457.25
2022-08-03T13:17:16.911Z,97458.81
2022-08-03T13:19:44.464Z,97448.19
2022-08-03T13:22:25.143Z,97453.38
2022-08-03T13:24:55.904Z,97453.91
2022-08-03T13:28:04.379Z,97459.16
2022-08-03T13:30:10.085Z,97452.56
2022-08-03T13:32:36.688Z,97447.16
2022-08-03T13:35:04.461Z,97447.50
2022-08-03T13:37:32.439Z,97446.31
2022-08-03T13:40:03.051Z,97447.50
2022-08-03T13:42:32.367Z,97444.31
2022-08-03T13:45:00.168Z,97440.69
2022-08-03T13:47:27.358Z,97436.31
2022-08-03T13:50:01.387Z,97433.88
2022-08-03T13:52:38.152Z,97429.13
2022-08-03T13:55:06.829Z,97435.09
2022-08-03T13:58:02.920Z,97430.47
2022-08-03T14:00:27.296Z,97418.31
2022-08-03T14:03:02.926Z,97420.25
2022-08-03T14:05:32.243Z,97428.63
2022-08-03T14:08:04.202Z,97414.56
2022-08-03T14:10:36.622Z,97414.38
2022-08-03T14:13:04.560Z,97412.88
2022-08-03T14:15:31.500Z,97412.13
2022-08-03T14:17:58.469Z,97400.50
2022-08-03T14:20:38.836Z,97414.34
2022-08-03T14:23:12.930Z,97403.50
2022-08-03T14:25:50.465Z,97412.38
2022-08-03T14:28:20.198Z,97408.91
2022-08-03T14:30:47.883Z,97404.00
2022-08-03T14:33:14.847Z,97397.81
2022-08-03T14:35:41.594Z,97398.25
2022-08-03T14:38:08.192Z,97397.75
2022-08-03T14:40:34.809Z,97397.28
2022-08-03T14:43:02.473Z,97396.91
2022-08-03T14:45:29.184Z,97392.56
2022-08-03T14:50:24.408Z,97396.94
2022-08-03T14:50:48.304Z,97396.47
2022-08-03T14:53:20.268Z,97395.56
2022-08-03T14:55:50.941Z,97389.19
2022-08-03T14:58:27.712Z,97386.66
2022-08-03T15:00:55.550Z,97387.34
2022-08-03T15:03:24.771Z,97378.38
2022-08-03T15:05:53.338Z,97382.72
2022-08-03T15:08:20.795Z,97379.72
2022-08-03T15:10:49.131Z,97381.66
2022-08-03T15:13:17.029Z,97372.00
2022-08-03T15:15:43.915Z,97361.81
2022-08-03T15:18:10.516Z,97370.88
2022-08-03T15:20:44.566Z,97363.69
2022-08-03T15:23:13.988Z,97360.16
2022-08-03T15:26:31.703Z,97361.31
2022-08-03T15:28:27.270Z,97357.91
2022-08-03T15:30:53.806Z,97361.47
2022-08-03T15:33:20.562Z,97361.31
2022-08-03T15:35:47.773Z,97355.13
2022-08-03T15:38:14.764Z,97358.31
2022-08-03T15:40:41.668Z,97360.81
2022-08-03T15:43:08.504Z,97362.66
2022-08-03T15:45:36.569Z,97369.34
2022-08-03T15:48:07.144Z,97360.44
2022-08-03T15:50:34.589Z,97350.16
2022-08-03T15:53:01.182Z,97355.94
2022-08-03T15:55:27.974Z,97358.22
2022-08-03T15:59:10.684Z,97355.13
2022-08-03T16:00:42.849Z,97350.44
2022-08-03T16:03:10.426Z,97358.06
2022-08-03T16:05:37.235Z,97347.25
2022-08-03T16:08:05.651Z,97348.00
2022-08-03T16:10:33.736Z,97351.16
2022-08-03T16:13:00.494Z,97347.38
2022-08-03T16:15:27.859Z,97336.81
2022-08-03T16:17:54.710Z,97345.84
2022-08-03T16:20:33.890Z,97345.31
2022-08-03T16:23:10.360Z,97340.97
2022-08-03T16:25:39.363Z,97339.22
2022-08-03T16:28:12.776Z,97337.63
2022-08-03T16:30:41.892Z,97343.06
2022-08-03T16:33:08.683Z,97334.88
2022-08-03T16:35:35.369Z,97338.28
2022-08-03T16:38:06.532Z,97340.09
2022-08-03T16:40:36.354Z,97331.56
2022-08-03T16:43:18.990Z,97330.84
2022-08-03T16:45:47.373Z,97327.00
2022-08-03T16:48:18.426Z,97338.72
2022-08-03T16:50:45.324Z,97339.22
2022-08-03T16:53:15.626Z,97331.72
2022-08-03T16:55:53.946Z,97332.22
2022-08-03T16:58:34.511Z,97331.84
2022-08-03T17:01:22.377Z,97330.13
2022-08-03T17:04:01.698Z,97330.81
2022-08-03T17:06:33.936Z,97330.06
2022-08-03T17:09:02.230Z,97328.41
2022-08-03T17:11:30.234Z,97327.63
2022-08-03T17:14:00.232Z,97327.53
2022-08-03T17:16:27.118Z,97332.06
2022-08-03T17:19:03.985Z,97329.56
2022-08-03T17:21:33.134Z,97335.88
2022-08-03T17:24:12.120Z,97338.59
2022-08-03T17:26:43.602Z,97335.22
2022-08-03T17:29:13.376Z,97330.25
2022-08-03T17:31:48.519Z,97335.44
2022-08-03T17:34:16.634Z,97343.28
2022-08-03T17:39:56.833Z,97342.34
2022-08-03T17:42:30.520Z,97339.81
2022-08-03T17:45:02.287Z,97342.31
2022-08-03T17:47:42.151Z,97345.22
2022-08-03T17:50:24.363Z,97344.31
2022-08-03T17:53:07.278Z,97346.38
2022-08-03T17:55:56.779Z,97340.25
2022-08-03T17:58:56.514Z,97354.50
2022-08-03T18:01:58.286Z,97346.16
2022-08-03T18:04:33.552Z,97352.69
2022-08-03T18:07:11.715Z,97360.59
2022-08-03T18:10:04.424Z,97365.13
2022-08-03T18:12:37.154Z,97362.69
2022-08-03T18:15:08.388Z,97363.78
2022-08-03T18:17:55.905Z,97365.69
2022-08-03T18:20:32.807Z,97364.75
2022-08-03T18:23:05.958Z,97365.88
2022-08-03T18:25:43.098Z,97360.31
2022-08-03T18:28:18.512Z,97365.72
2022-08-03T18:30:53.383Z,97365.88
2022-08-03T18:34:18.377Z,97368.72
2022-08-03T18:36:22.179Z,97367.63
2022-08-03T18:38:58.656Z,97366.44
2022-08-03T18:41:33.439Z,97366.56
2022-08-03T18:44:37.500Z,97372.31
2022-08-03T18:47:16.502Z,97366.41
2022-08-03T18:49:55.313Z,97370.41
2022-08-03T18:52:35.442Z,97371.00
2022-08-03T18:55:20.635Z,97369.81
2022-08-03T18:58:15.906Z,97371.59
2022-08-03T19:01:57.225Z,97376.41
2022-08-03T19:04:08.565Z,97380.78
2022-08-03T19:06:42.211Z,97381.91
2022-08-03T19:09:49.410Z,97374.22
2022-08-03T19:12:30.780Z,97377.28
2022-08-03T19:15:04.433Z,97383.91
2022-08-03T19:17:36.119Z,97386.75
2022-08-03T19:20:08.738Z,97387.59
2022-08-03T19:22:38.011Z,97383.81
2022-08-03T19:25:06.459Z,97396.38
2022-08-03T19:27:39.690Z,97402.06
2022-08-03T19:30:21.947Z,97391.13
2022-08-03T19:32:54.346Z,97404.59
2022-08-03T19:35:52.046Z,97399.81
2022-08-03T19:38:08.833Z,97396.97
2022-08-03T19:40:42.013Z,97401.31
2022-08-03T19:43:17.619Z,97405.81
2022-08-03T19:46:05.474Z,97401.72
2022-08-03T19:48:34.683Z,97405.41
2022-08-03T19:51:04.554Z,97406.00
2022-08-03T19:53:45.138Z,97419.06
2022-08-03T19:56:14.411Z,97406.88
2022-08-03T19:58:43.051Z,97406.13
2022-08-03T20:01:21.331Z,97404.13
2022-08-03T20:03:49.203Z,97401.09
2022-08-03T20:06:17.667Z,97408.25
2022-08-03T20:08:44.504Z,97409.75
2022-08-03T20:11:11.319Z,97408.25
2022-08-03T20:16:25.526Z,97411.75
2022-08-03T20:18:52.067Z,97405.38
2022-08-03T20:21:20.748Z,97411.34
2022-08-03T20:24:00.047Z,97410.69
2022-08-03T20:26:30.578Z,97405.41
2022-08-03T20:29:10.037Z,97407.00
2022-08-03T20:31:37.586Z,97407.84
2022-08-03T20:34:06.118Z,97408.38
2022-08-03T20:36:32.827Z,97410.25
2022-08-03T20:38:59.688Z,97411.00
2022-08-03T20:41:26.619Z,97406.47
2022-08-03T20:43:53.209Z,97405.41
2022-08-03T20:46:30.889Z,97405.72
2022-08-03T20:49:01.503Z,97405.09
2022-08-03T20:51:50.373Z,97407.03
2022-08-03T20:54:31.122Z,97406.91
2022-08-03T20:57:04.421Z,97404.34
2022-08-03T20:59:50.519Z,97395.19
2022-08-03T21:02:29.109Z,97399.84
2022-08-03T21:04:59.102Z,97407.09
2022-08-03T21:08:04.046Z,97404.84
2022-08-03T21:10:21.241Z,97404.34
2022-08-03T21:13:10.763Z,97400.81
2022-08-03T21:13:15.471Z,97402.50
2022-08-03T21:16:03.228Z,97401.88
2022-08-03T21:18:41.831Z,97402.00
2022-08-03T21:21:11.392Z,97403.31
2022-08-03T21:23:48.753Z,97405.41
2022-08-03T21:26:24.270Z,97408.94
2022-08-03T21:28:53.774Z,97403.88
2022-08-03T21:31:25.316Z,97405.41
2022-08-03T21:34:03.792Z,97399.38
2022-08-03T21:36:33.178Z,97396.84
2022-08-03T21:39:00.466Z,97399.97
2022-08-03T21:41:30.069Z,97405.56
2022-08-03T21:43:57.319Z,97399.97
2022-08-03T21:46:25.979Z,97402.28
2022-08-03T21:50:06.776Z,97396.72
2022-08-03T21:51:49.853Z,97403.63
2022-08-03T21:54:16.806Z,97407.19
2022-08-03T21:56:47.494Z,97405.44
2022-08-03T21:59:19.105Z,97396.28
2022-08-03T22:01:49.151Z,97396.28
2022-08-03T22:04:50.178Z,97398.34
2022-08-03T22:07:08.203Z,97395.06
2022-08-03T22:09:35.867Z,97399.13
2022-08-03T22:12:02.810Z,97396.09
2022-08-03T22:14:32.291Z,97405.25
2022-08-03T22:16:59.881Z,97397.63
2022-08-03T22:19:26.484Z,97404.53
2022-08-03T22:21:54.405Z,97403.22
2022-08-03T22:24:23.929Z,97400.19
2022-08-03T22:27:09.800Z,97400.19
2022-08-03T22:29:36.873Z,97398.44
2022-08-03T22:32:03.605Z,97396.94
2022-08-03T22:34:30.268Z,97402.75
2022-08-03T22:37:03.058Z,97410.38
2022-08-03T22:39:30.501Z,97400.19
2022-08-03T22:42:01.209Z,97408.06
2022-08-03T22:44:28.144Z,97412.16
2022-08-03T22:46:55.646Z,97428.41
2022-08-03T22:49:22.848Z,97418.50
2022-08-03T22:51:51.711Z,97420.00
2022-08-03T22:54:18.608Z,97424.06
2022-08-03T22:56:47.890Z,97425.06
2022-08-03T22:59:38.823Z,97431.97
2022-08-03T23:02:20.290Z,97425.34
2022-08-03T23:04:56.525Z,97434.47
2022-08-03T23:07:33.123Z,97429.63
2022-08-03T23:10:01.483Z,97439.53
2022-08-03T23:12:30.394Z,97437.47
2022-08-03T23:15:01.091Z,97442.81
2022-08-03T23:17:30.838Z,97436.63
2022-08-03T23:20:08.483Z,97431.63
2022-08-03T23:22:38.308Z,97432.88
2022-08-03T23:25:09.965Z,97428.97
2022-08-03T23:27:40.522Z,97434.09
2022-08-03T23:30:10.109Z,97432.28
2022-08-03T23:32:37.370Z,97431.97
2022-08-03T23:36:28.725Z,97434.53
2022-08-03T23:38:22.886Z,97437.28
2022-08-03T23:40:51.361Z,97433.66
2022-08-03T23:43:50.888Z,97441.78
2022-08-03T23:46:09.071Z,97433.41
2022-08-03T23:48:35.873Z,97437.94
2022-08-03T23:51:35.133Z,97440.47
2022-08-03T23:54:26.678Z,97438.69
2022-08-03T23:57:14.424Z,97431.97
